sensor_id;sensor_type;location;lat;lon;timestamp;temperature;humidity
13426;DHT22;6785;57.918;12.530;2022-08-19T00:01:18;17.90;99.90
13426;DHT22;6785;57.918;12.530;2022-08-19T00:03:45;17.90;99.90
13426;DHT22;6785;57.918;12.530;2022-08-19T00:06:13;17.90;99.90
13426;DHT22;6785;57.918;12.530;2022-08-19T00:08:40;17.90;99.90
13426;DHT22;6785;57.918;12.530;2022-08-19T00:11:07;17.90;99.90
13426;DHT22;6785;57.918;12.530;2022-08-19T00:13:35;17.90;99.90
13426;DHT22;6785;57.918;12.530;2022-08-19T00:16:03;17.90;99.90
13426;DHT22;6785;57.918;12.530;2022-08-19T00:18:31;17.90;99.90
13426;DHT22;6785;57.918;12.530;2022-08-19T00:20:58;17.90;99.90
13426;DHT22;6785;57.918;12.530;2022-08-19T00:23:27;18.00;99.90
13426;DHT22;6785;57.918;12.530;2022-08-19T00:25:54;18.00;99.90
13426;DHT22;6785;57.918;12.530;2022-08-19T00:28:20;18.00;99.90
13426;DHT22;6785;57.918;12.530;2022-08-19T00:30:47;18.00;99.90
13426;DHT22;6785;57.918;12.530;2022-08-19T00:33:14;18.00;99.90
13426;DHT22;6785;57.918;12.530;2022-08-19T00:35:42;18.10;99.90
13426;DHT22;6785;57.918;12.530;2022-08-19T00:38:08;18.10;99.90
13426;DHT22;6785;57.918;12.530;2022-08-19T00:40:37;18.10;99.90
13426;DHT22;6785;57.918;12.530;2022-08-19T00:43:08;18.10;99.90
13426;DHT22;6785;57.918;12.530;2022-08-19T00:45:35;18.20;99.90
13426;DHT22;6785;57.918;12.530;2022-08-19T00:48:03;18.20;99.90
13426;DHT22;6785;57.918;12.530;2022-08-19T00:50:30;18.20;99.90
13426;DHT22;6785;57.918;12.530;2022-08-19T00:52:58;18.20;99.90
13426;DHT22;6785;57.918;12.530;2022-08-19T00:55:26;18.20;99.90
13426;DHT22;6785;57.918;12.530;2022-08-19T00:57:59;18.20;99.90
13426;DHT22;6785;57.918;12.530;2022-08-19T01:00:29;18.20;99.90
13426;DHT22;6785;57.918;12.530;2022-08-19T01:02:56;18.30;99.90
13426;DHT22;6785;57.918;12.530;2022-08-19T01:05:26;18.20;99.90
13426;DHT22;6785;57.918;12.530;2022-08-19T01:07:55;18.30;99.90
13426;DHT22;6785;57.918;12.530;2022-08-19T01:10:25;18.30;99.90
13426;DHT22;6785;57.918;12.530;2022-08-19T01:12:55;18.30;99.90
13426;DHT22;6785;57.918;12.530;2022-08-19T01:15:27;18.30;99.90
13426;DHT22;6785;57.918;12.530;2022-08-19T01:17:56;18.30;99.90
13426;DHT22;6785;57.918;12.530;2022-08-19T01:20:24;18.30;99.90
13426;DHT22;6785;57.918;12.530;2022-08-19T01:22:55;18.20;99.90
13426;DHT22;6785;57.918;12.530;2022-08-19T01:25:25;18.20;99.90
13426;DHT22;6785;57.918;12.530;2022-08-19T01:27:53;18.20;99.90
13426;DHT22;6785;57.918;12.530;2022-08-19T01:30:23;18.20;99.90
13426;DHT22;6785;57.918;12.530;2022-08-19T01:32:51;18.20;99.90
13426;DHT22;6785;57.918;12.530;2022-08-19T01:35:20;18.20;99.90
13426;DHT22;6785;57.918;12.530;2022-08-19T01:37:50;18.20;99.90
13426;DHT22;6785;57.918;12.530;2022-08-19T01:40:21;18.20;99.90
13426;DHT22;6785;57.918;12.530;2022-08-19T01:42:48;18.20;99.90
13426;DHT22;6785;57.918;12.530;2022-08-19T01:45:15;18.20;99.90
13426;DHT22;6785;57.918;12.530;2022-08-19T01:47:42;18.30;99.90
13426;DHT22;6785;57.918;12.530;2022-08-19T01:50:11;18.30;99.90
13426;DHT22;6785;57.918;12.530;2022-08-19T01:52:39;18.30;99.90
13426;DHT22;6785;57.918;12.530;2022-08-19T01:55:09;18.30;99.90
13426;DHT22;6785;57.918;12.530;2022-08-19T01:57:39;18.30;99.90
13426;DHT22;6785;57.918;12.530;2022-08-19T02:00:12;18.30;99.90
13426;DHT22;6785;57.918;12.530;2022-08-19T02:02:40;18.30;99.90
13426;DHT22;6785;57.918;12.530;2022-08-19T02:05:08;18.40;99.90
13426;DHT22;6785;57.918;12.530;2022-08-19T02:07:35;18.40;99.90
13426;DHT22;6785;57.918;12.530;2022-08-19T02:10:03;18.40;99.90
13426;DHT22;6785;57.918;12.530;2022-08-19T02:12:30;18.40;99.90
13426;DHT22;6785;57.918;12.530;2022-08-19T02:14:59;18.40;99.90
13426;DHT22;6785;57.918;12.530;2022-08-19T02:17:26;18.40;99.90
13426;DHT22;6785;57.918;12.530;2022-08-19T02:19:54;18.40;99.90
13426;DHT22;6785;57.918;12.530;2022-08-19T02:22:21;18.40;99.90
13426;DHT22;6785;57.918;12.530;2022-08-19T02:24:48;18.40;99.90
13426;DHT22;6785;57.918;12.530;2022-08-19T02:27:15;18.40;99.90
13426;DHT22;6785;57.918;12.530;2022-08-19T02:29:42;18.40;99.90
13426;DHT22;6785;57.918;12.530;2022-08-19T02:32:10;18.40;99.90
13426;DHT22;6785;57.918;12.530;2022-08-19T02:34:37;18.40;99.90
13426;DHT22;6785;57.918;12.530;2022-08-19T02:37:05;18.40;99.90
13426;DHT22;6785;57.918;12.530;2022-08-19T02:39:52;18.40;99.90
13426;DHT22;6785;57.918;12.530;2022-08-19T02:42:18;18.40;99.90
13426;DHT22;6785;57.918;12.530;2022-08-19T02:44:45;18.40;99.90
13426;DHT22;6785;57.918;12.530;2022-08-19T02:47:13;18.40;99.90
13426;DHT22;6785;57.918;12.530;2022-08-19T02:49:40;18.30;99.90
13426;DHT22;6785;57.918;12.530;2022-08-19T02:52:07;18.30;99.90
13426;DHT22;6785;57.918;12.530;2022-08-19T02:54:34;18.30;99.90
13426;DHT22;6785;57.918;12.530;2022-08-19T02:57:02;18.30;99.90
13426;DHT22;6785;57.918;12.530;2022-08-19T02:59:29;18.30;99.90
13426;DHT22;6785;57.918;12.530;2022-08-19T03:01:56;18.30;99.90
13426;DHT22;6785;57.918;12.530;2022-08-19T03:04:25;18.30;99.90
13426;DHT22;6785;57.918;12.530;2022-08-19T03:06:52;18.30;99.90
13426;DHT22;6785;57.918;12.530;2022-08-19T03:09:20;18.30;99.90
13426;DHT22;6785;57.918;12.530;2022-08-19T03:11:46;18.30;99.90
13426;DHT22;6785;57.918;12.530;2022-08-19T03:14:13;18.30;99.90
13426;DHT22;6785;57.918;12.530;2022-08-19T03:16:42;18.30;99.90
13426;DHT22;6785;57.918;12.530;2022-08-19T03:19:09;18.30;99.90
13426;DHT22;6785;57.918;12.530;2022-08-19T03:21:38;18.30;99.90
13426;DHT22;6785;57.918;12.530;2022-08-19T03:24:07;18.30;99.90
13426;DHT22;6785;57.918;12.530;2022-08-19T03:26:38;18.20;99.90
13426;DHT22;6785;57.918;12.530;2022-08-19T03:29:06;18.20;99.90
13426;DHT22;6785;57.918;12.530;2022-08-19T03:31:35;18.20;99.90
13426;DHT22;6785;57.918;12.530;2022-08-19T03:34:02;18.20;99.90
13426;DHT22;6785;57.918;12.530;2022-08-19T03:36:29;18.20;99.90
13426;DHT22;6785;57.918;12.530;2022-08-19T03:38:59;18.20;99.90
13426;DHT22;6785;57.918;12.530;2022-08-19T03:41:28;18.10;99.90
13426;DHT22;6785;57.918;12.530;2022-08-19T03:43:56;18.10;99.90
13426;DHT22;6785;57.918;12.530;2022-08-19T03:46:25;18.10;99.90
13426;DHT22;6785;57.918;12.530;2022-08-19T03:48:54;18.10;99.90
13426;DHT22;6785;57.918;12.530;2022-08-19T03:51:28;18.10;99.90
13426;DHT22;6785;57.918;12.530;2022-08-19T03:54:01;18.10;99.90
13426;DHT22;6785;57.918;12.530;2022-08-19T03:56:28;18.00;99.90
13426;DHT22;6785;57.918;12.530;2022-08-19T03:58:57;18.00;99.90
13426;DHT22;6785;57.918;12.530;2022-08-19T04:01:27;17.90;99.90
13426;DHT22;6785;57.918;12.530;2022-08-19T04:03:55;17.90;99.90
13426;DHT22;6785;57.918;12.530;2022-08-19T04:06:25;17.80;99.90
13426;DHT22;6785;57.918;12.530;2022-08-19T04:08:54;17.80;99.90
13426;DHT22;6785;57.918;12.530;2022-08-19T04:11:25;17.80;99.90
13426;DHT22;6785;57.918;12.530;2022-08-19T04:13:54;17.80;99.90
13426;DHT22;6785;57.918;12.530;2022-08-19T04:16:24;17.80;99.90
13426;DHT22;6785;57.918;12.530;2022-08-19T04:18:54;17.70;99.90
13426;DHT22;6785;57.918;12.530;2022-08-19T04:21:24;17.70;99.90
13426;DHT22;6785;57.918;12.530;2022-08-19T04:23:51;17.70;99.90
13426;DHT22;6785;57.918;12.530;2022-08-19T04:26:24;17.70;99.90
13426;DHT22;6785;57.918;12.530;2022-08-19T04:28:52;17.70;99.90
13426;DHT22;6785;57.918;12.530;2022-08-19T04:31:22;17.80;99.90
13426;DHT22;6785;57.918;12.530;2022-08-19T04:33:51;17.80;99.90
13426;DHT22;6785;57.918;12.530;2022-08-19T04:36:21;17.80;99.90
13426;DHT22;6785;57.918;12.530;2022-08-19T04:38:52;17.80;99.90
13426;DHT22;6785;57.918;12.530;2022-08-19T04:41:20;17.80;99.90
13426;DHT22;6785;57.918;12.530;2022-08-19T04:44:06;17.80;99.90
13426;DHT22;6785;57.918;12.530;2022-08-19T04:46:33;17.80;99.90
13426;DHT22;6785;57.918;12.530;2022-08-19T04:49:08;17.80;99.90
13426;DHT22;6785;57.918;12.530;2022-08-19T04:51:35;17.70;99.90
13426;DHT22;6785;57.918;12.530;2022-08-19T04:54:03;17.70;99.90
13426;DHT22;6785;57.918;12.530;2022-08-19T04:56:30;17.70;99.90
13426;DHT22;6785;57.918;12.530;2022-08-19T04:58:57;17.70;99.90
13426;DHT22;6785;57.918;12.530;2022-08-19T05:01:30;17.60;99.90
13426;DHT22;6785;57.918;12.530;2022-08-19T05:03:58;17.70;99.90
13426;DHT22;6785;57.918;12.530;2022-08-19T05:06:25;17.70;99.90
13426;DHT22;6785;57.918;12.530;2022-08-19T05:08:54;17.70;99.90
13426;DHT22;6785;57.918;12.530;2022-08-19T05:11:24;17.70;99.90
13426;DHT22;6785;57.918;12.530;2022-08-19T05:13:51;17.70;99.90
13426;DHT22;6785;57.918;12.530;2022-08-19T05:16:19;17.80;99.90
13426;DHT22;6785;57.918;12.530;2022-08-19T05:18:48;17.80;99.90
13426;DHT22;6785;57.918;12.530;2022-08-19T05:21:33;17.80;99.90
13426;DHT22;6785;57.918;12.530;2022-08-19T05:24:18;17.80;99.90
13426;DHT22;6785;57.918;12.530;2022-08-19T05:26:47;17.80;99.90
13426;DHT22;6785;57.918;12.530;2022-08-19T05:29:20;17.80;99.90
13426;DHT22;6785;57.918;12.530;2022-08-19T05:31:48;17.80;99.90
13426;DHT22;6785;57.918;12.530;2022-08-19T05:34:17;17.80;99.90
13426;DHT22;6785;57.918;12.530;2022-08-19T05:36:48;17.80;99.90
13426;DHT22;6785;57.918;12.530;2022-08-19T05:39:18;17.80;99.90
13426;DHT22;6785;57.918;12.530;2022-08-19T05:41:47;17.80;99.90
13426;DHT22;6785;57.918;12.530;2022-08-19T05:44:15;17.80;99.90
13426;DHT22;6785;57.918;12.530;2022-08-19T05:46:43;17.80;99.90
13426;DHT22;6785;57.918;12.530;2022-08-19T05:49:13;17.90;99.90
13426;DHT22;6785;57.918;12.530;2022-08-19T05:51:42;17.90;99.90
13426;DHT22;6785;57.918;12.530;2022-08-19T05:54:10;17.90;99.90
13426;DHT22;6785;57.918;12.530;2022-08-19T05:56:39;18.00;99.90
13426;DHT22;6785;57.918;12.530;2022-08-19T05:59:07;18.00;99.90
13426;DHT22;6785;57.918;12.530;2022-08-19T06:01:35;18.00;99.90
13426;DHT22;6785;57.918;12.530;2022-08-19T06:04:03;17.90;99.90
13426;DHT22;6785;57.918;12.530;2022-08-19T06:06:30;17.90;99.90
13426;DHT22;6785;57.918;12.530;2022-08-19T06:09:01;17.80;99.90
13426;DHT22;6785;57.918;12.530;2022-08-19T06:11:34;17.90;99.90
13426;DHT22;6785;57.918;12.530;2022-08-19T06:14:04;17.90;99.90
13426;DHT22;6785;57.918;12.530;2022-08-19T06:16:34;17.90;99.90
13426;DHT22;6785;57.918;12.530;2022-08-19T06:19:03;17.90;99.90
13426;DHT22;6785;57.918;12.530;2022-08-19T06:21:32;17.90;99.90
13426;DHT22;6785;57.918;12.530;2022-08-19T06:24:00;18.00;99.90
13426;DHT22;6785;57.918;12.530;2022-08-19T06:26:28;18.00;99.90
13426;DHT22;6785;57.918;12.530;2022-08-19T06:28:55;17.90;99.90
13426;DHT22;6785;57.918;12.530;2022-08-19T06:31:24;18.00;99.90
13426;DHT22;6785;57.918;12.530;2022-08-19T06:33:51;18.00;99.90
13426;DHT22;6785;57.918;12.530;2022-08-19T06:36:19;18.10;99.90
13426;DHT22;6785;57.918;12.530;2022-08-19T06:38:47;18.20;99.90
13426;DHT22;6785;57.918;12.530;2022-08-19T06:41:15;18.20;99.90
13426;DHT22;6785;57.918;12.530;2022-08-19T06:43:42;18.20;99.90
13426;DHT22;6785;57.918;12.530;2022-08-19T06:46:11;18.10;99.90
13426;DHT22;6785;57.918;12.530;2022-08-19T06:48:39;18.10;99.90
13426;DHT22;6785;57.918;12.530;2022-08-19T06:51:06;18.20;99.90
13426;DHT22;6785;57.918;12.530;2022-08-19T06:53:33;18.20;99.90
13426;DHT22;6785;57.918;12.530;2022-08-19T06:56:00;18.20;99.90
13426;DHT22;6785;57.918;12.530;2022-08-19T06:58:30;18.20;99.90
13426;DHT22;6785;57.918;12.530;2022-08-19T07:00:59;18.30;99.90
13426;DHT22;6785;57.918;12.530;2022-08-19T07:03:29;18.30;99.90
13426;DHT22;6785;57.918;12.530;2022-08-19T07:05:57;18.30;99.90
13426;DHT22;6785;57.918;12.530;2022-08-19T07:08:25;18.40;99.90
13426;DHT22;6785;57.918;12.530;2022-08-19T07:10:52;18.40;99.90
13426;DHT22;6785;57.918;12.530;2022-08-19T07:13:20;18.30;99.90
13426;DHT22;6785;57.918;12.530;2022-08-19T07:15:49;18.40;99.90
13426;DHT22;6785;57.918;12.530;2022-08-19T07:18:17;18.30;99.90
13426;DHT22;6785;57.918;12.530;2022-08-19T07:20:45;18.30;99.90
13426;DHT22;6785;57.918;12.530;2022-08-19T07:23:12;18.40;99.90
13426;DHT22;6785;57.918;12.530;2022-08-19T07:25:39;18.50;99.90
13426;DHT22;6785;57.918;12.530;2022-08-19T07:28:07;18.60;99.90
13426;DHT22;6785;57.918;12.530;2022-08-19T07:30:37;18.70;99.90
13426;DHT22;6785;57.918;12.530;2022-08-19T07:33:07;18.80;99.90
13426;DHT22;6785;57.918;12.530;2022-08-19T07:35:34;18.90;99.90
13426;DHT22;6785;57.918;12.530;2022-08-19T07:38:01;19.00;99.90
13426;DHT22;6785;57.918;12.530;2022-08-19T07:40:29;19.10;99.90
13426;DHT22;6785;57.918;12.530;2022-08-19T07:42:56;19.10;99.90
13426;DHT22;6785;57.918;12.530;2022-08-19T07:45:24;19.10;99.90
13426;DHT22;6785;57.918;12.530;2022-08-19T07:47:51;19.20;99.90
13426;DHT22;6785;57.918;12.530;2022-08-19T07:50:20;19.30;99.90
13426;DHT22;6785;57.918;12.530;2022-08-19T07:52:49;19.30;99.90
13426;DHT22;6785;57.918;12.530;2022-08-19T07:55:19;19.30;99.90
13426;DHT22;6785;57.918;12.530;2022-08-19T07:57:46;19.20;99.90
13426;DHT22;6785;57.918;12.530;2022-08-19T08:00:14;19.20;99.90
13426;DHT22;6785;57.918;12.530;2022-08-19T08:02:41;19.30;99.90
13426;DHT22;6785;57.918;12.530;2022-08-19T08:05:09;19.50;99.90
13426;DHT22;6785;57.918;12.530;2022-08-19T08:07:55;19.60;99.90
13426;DHT22;6785;57.918;12.530;2022-08-19T08:10:39;19.80;99.90
13426;DHT22;6785;57.918;12.530;2022-08-19T08:13:07;19.90;99.90
13426;DHT22;6785;57.918;12.530;2022-08-19T08:15:34;19.90;99.90
13426;DHT22;6785;57.918;12.530;2022-08-19T08:18:03;20.00;99.90
13426;DHT22;6785;57.918;12.530;2022-08-19T08:20:29;20.20;99.90
13426;DHT22;6785;57.918;12.530;2022-08-19T08:22:58;20.30;99.90
13426;DHT22;6785;57.918;12.530;2022-08-19T08:25:42;20.30;99.90
13426;DHT22;6785;57.918;12.530;2022-08-19T08:28:09;20.40;99.90
13426;DHT22;6785;57.918;12.530;2022-08-19T08:30:36;20.50;99.90
13426;DHT22;6785;57.918;12.530;2022-08-19T08:33:06;20.60;99.90
13426;DHT22;6785;57.918;12.530;2022-08-19T08:35:33;20.70;99.90
13426;DHT22;6785;57.918;12.530;2022-08-19T08:38:02;21.00;99.90
13426;DHT22;6785;57.918;12.530;2022-08-19T08:40:39;21.20;99.90
13426;DHT22;6785;57.918;12.530;2022-08-19T08:43:19;21.30;99.90
13426;DHT22;6785;57.918;12.530;2022-08-19T08:45:52;21.30;99.90
13426;DHT22;6785;57.918;12.530;2022-08-19T08:48:24;21.50;99.90
13426;DHT22;6785;57.918;12.530;2022-08-19T08:50:52;21.80;99.90
13426;DHT22;6785;57.918;12.530;2022-08-19T08:53:23;21.70;99.90
13426;DHT22;6785;57.918;12.530;2022-08-19T08:55:51;21.70;99.90
13426;DHT22;6785;57.918;12.530;2022-08-19T08:58:24;21.60;99.90
13426;DHT22;6785;57.918;12.530;2022-08-19T09:00:53;21.60;99.90
13426;DHT22;6785;57.918;12.530;2022-08-19T09:03:21;21.50;99.90
13426;DHT22;6785;57.918;12.530;2022-08-19T09:05:56;21.60;99.90
13426;DHT22;6785;57.918;12.530;2022-08-19T09:08:35;21.80;99.90
13426;DHT22;6785;57.918;12.530;2022-08-19T09:11:07;22.10;99.90
13426;DHT22;6785;57.918;12.530;2022-08-19T09:13:42;22.00;99.90
13426;DHT22;6785;57.918;12.530;2022-08-19T09:16:16;22.20;99.90
13426;DHT22;6785;57.918;12.530;2022-08-19T09:18:47;22.30;99.90
13426;DHT22;6785;57.918;12.530;2022-08-19T09:21:14;22.40;99.90
13426;DHT22;6785;57.918;12.530;2022-08-19T09:23:43;22.40;99.90
13426;DHT22;6785;57.918;12.530;2022-08-19T09:26:12;22.50;99.90
13426;DHT22;6785;57.918;12.530;2022-08-19T09:28:40;22.40;99.90
13426;DHT22;6785;57.918;12.530;2022-08-19T09:31:09;21.90;99.90
13426;DHT22;6785;57.918;12.530;2022-08-19T09:33:36;21.90;99.90
13426;DHT22;6785;57.918;12.530;2022-08-19T09:36:06;21.80;99.90
13426;DHT22;6785;57.918;12.530;2022-08-19T09:38:34;22.00;99.90
13426;DHT22;6785;57.918;12.530;2022-08-19T09:41:04;22.20;99.90
13426;DHT22;6785;57.918;12.530;2022-08-19T09:43:34;22.40;99.90
13426;DHT22;6785;57.918;12.530;2022-08-19T09:46:03;22.50;99.90
13426;DHT22;6785;57.918;12.530;2022-08-19T09:48:32;22.70;99.90
13426;DHT22;6785;57.918;12.530;2022-08-19T09:51:03;22.90;99.90
13426;DHT22;6785;57.918;12.530;2022-08-19T09:53:30;22.90;99.90
13426;DHT22;6785;57.918;12.530;2022-08-19T09:55:57;22.70;99.90
13426;DHT22;6785;57.918;12.530;2022-08-19T09:58:25;22.70;99.90
13426;DHT22;6785;57.918;12.530;2022-08-19T10:00:53;22.80;99.90
13426;DHT22;6785;57.918;12.530;2022-08-19T10:03:20;22.80;99.90
13426;DHT22;6785;57.918;12.530;2022-08-19T10:05:47;22.70;99.90
13426;DHT22;6785;57.918;12.530;2022-08-19T10:08:19;22.90;99.90
13426;DHT22;6785;57.918;12.530;2022-08-19T10:10:47;23.10;99.90
13426;DHT22;6785;57.918;12.530;2022-08-19T10:13:17;23.20;99.90
13426;DHT22;6785;57.918;12.530;2022-08-19T10:16:06;23.30;99.90
13426;DHT22;6785;57.918;12.530;2022-08-19T10:18:33;23.10;99.90
13426;DHT22;6785;57.918;12.530;2022-08-19T10:21:07;23.10;99.90
13426;DHT22;6785;57.918;12.530;2022-08-19T10:23:45;22.90;99.90
13426;DHT22;6785;57.918;12.530;2022-08-19T10:26:14;22.90;99.90
13426;DHT22;6785;57.918;12.530;2022-08-19T10:28:41;22.90;99.90
13426;DHT22;6785;57.918;12.530;2022-08-19T10:31:12;23.10;99.90
13426;DHT22;6785;57.918;12.530;2022-08-19T10:33:39;23.20;99.90
13426;DHT22;6785;57.918;12.530;2022-08-19T10:36:09;23.30;99.90
13426;DHT22;6785;57.918;12.530;2022-08-19T10:38:36;23.40;99.90
13426;DHT22;6785;57.918;12.530;2022-08-19T10:41:08;23.20;99.90
13426;DHT22;6785;57.918;12.530;2022-08-19T10:43:35;23.10;99.90
13426;DHT22;6785;57.918;12.530;2022-08-19T10:46:04;23.30;99.90
13426;DHT22;6785;57.918;12.530;2022-08-19T10:48:33;23.50;99.90
13426;DHT22;6785;57.918;12.530;2022-08-19T10:51:00;23.70;99.90
13426;DHT22;6785;57.918;12.530;2022-08-19T10:53:44;23.80;99.90
13426;DHT22;6785;57.918;12.530;2022-08-19T10:56:12;23.80;99.90
13426;DHT22;6785;57.918;12.530;2022-08-19T10:58:56;23.70;99.90
13426;DHT22;6785;57.918;12.530;2022-08-19T11:01:24;23.40;99.90
13426;DHT22;6785;57.918;12.530;2022-08-19T11:03:56;23.10;99.90
13426;DHT22;6785;57.918;12.530;2022-08-19T11:06:24;22.80;99.90
13426;DHT22;6785;57.918;12.530;2022-08-19T11:08:53;22.90;99.90
13426;DHT22;6785;57.918;12.530;2022-08-19T11:11:21;23.10;99.90
13426;DHT22;6785;57.918;12.530;2022-08-19T11:13:49;23.40;99.90
13426;DHT22;6785;57.918;12.530;2022-08-19T11:16:18;23.60;99.90
13426;DHT22;6785;57.918;12.530;2022-08-19T11:18:47;23.70;99.90
13426;DHT22;6785;57.918;12.530;2022-08-19T11:21:18;23.90;99.90
13426;DHT22;6785;57.918;12.530;2022-08-19T11:23:47;24.10;99.90
13426;DHT22;6785;57.918;12.530;2022-08-19T11:26:15;24.20;99.90
13426;DHT22;6785;57.918;12.530;2022-08-19T11:28:42;24.20;99.90
13426;DHT22;6785;57.918;12.530;2022-08-19T11:31:11;24.30;99.90
13426;DHT22;6785;57.918;12.530;2022-08-19T11:33:38;24.20;99.90
13426;DHT22;6785;57.918;12.530;2022-08-19T11:36:06;24.30;99.90
13426;DHT22;6785;57.918;12.530;2022-08-19T11:38:34;24.30;99.90
13426;DHT22;6785;57.918;12.530;2022-08-19T11:41:03;24.50;99.90
13426;DHT22;6785;57.918;12.530;2022-08-19T11:43:58;24.50;99.90
13426;DHT22;6785;57.918;12.530;2022-08-19T11:46:26;24.50;99.90
13426;DHT22;6785;57.918;12.530;2022-08-19T11:48:54;24.60;99.90
13426;DHT22;6785;57.918;12.530;2022-08-19T11:51:23;24.80;99.90
13426;DHT22;6785;57.918;12.530;2022-08-19T11:53:52;24.90;99.90
13426;DHT22;6785;57.918;12.530;2022-08-19T11:56:20;25.00;99.90
13426;DHT22;6785;57.918;12.530;2022-08-19T11:58:48;24.90;99.90
13426;DHT22;6785;57.918;12.530;2022-08-19T12:01:17;24.90;99.90
13426;DHT22;6785;57.918;12.530;2022-08-19T12:04:03;24.60;99.90
13426;DHT22;6785;57.918;12.530;2022-08-19T12:06:32;24.20;99.90
13426;DHT22;6785;57.918;12.530;2022-08-19T12:09:04;24.10;99.90
13426;DHT22;6785;57.918;12.530;2022-08-19T12:11:32;24.20;99.90
13426;DHT22;6785;57.918;12.530;2022-08-19T12:13:58;24.10;99.90
13426;DHT22;6785;57.918;12.530;2022-08-19T12:16:27;24.00;99.90
13426;DHT22;6785;57.918;12.530;2022-08-19T12:18:55;24.10;99.90
13426;DHT22;6785;57.918;12.530;2022-08-19T12:21:25;24.10;99.90
13426;DHT22;6785;57.918;12.530;2022-08-19T12:23:54;24.10;99.90
13426;DHT22;6785;57.918;12.530;2022-08-19T12:26:23;24.20;99.90
13426;DHT22;6785;57.918;12.530;2022-08-19T12:28:51;24.30;99.90
13426;DHT22;6785;57.918;12.530;2022-08-19T12:31:18;24.50;99.90
13426;DHT22;6785;57.918;12.530;2022-08-19T12:33:47;24.40;99.90
13426;DHT22;6785;57.918;12.530;2022-08-19T12:36:15;24.70;99.90
13426;DHT22;6785;57.918;12.530;2022-08-19T12:38:45;24.70;99.90
13426;DHT22;6785;57.918;12.530;2022-08-19T12:41:13;24.80;99.90
13426;DHT22;6785;57.918;12.530;2022-08-19T12:43:42;25.00;99.90
13426;DHT22;6785;57.918;12.530;2022-08-19T12:46:10;25.10;99.90
13426;DHT22;6785;57.918;12.530;2022-08-19T12:48:42;25.20;99.90
13426;DHT22;6785;57.918;12.530;2022-08-19T12:51:14;25.20;99.90
13426;DHT22;6785;57.918;12.530;2022-08-19T12:53:41;25.10;99.90
13426;DHT22;6785;57.918;12.530;2022-08-19T12:56:10;25.20;99.90
13426;DHT22;6785;57.918;12.530;2022-08-19T12:58:38;25.10;99.90
13426;DHT22;6785;57.918;12.530;2022-08-19T13:01:10;24.90;99.90
13426;DHT22;6785;57.918;12.530;2022-08-19T13:03:37;24.80;99.90
13426;DHT22;6785;57.918;12.530;2022-08-19T13:06:04;24.70;99.90
13426;DHT22;6785;57.918;12.530;2022-08-19T13:08:31;24.60;99.90
13426;DHT22;6785;57.918;12.530;2022-08-19T13:11:07;24.60;99.90
13426;DHT22;6785;57.918;12.530;2022-08-19T13:13:34;24.30;99.90
13426;DHT22;6785;57.918;12.530;2022-08-19T13:16:01;24.40;99.90
13426;DHT22;6785;57.918;12.530;2022-08-19T13:18:30;24.60;99.90
13426;DHT22;6785;57.918;12.530;2022-08-19T13:21:01;24.70;99.90
13426;DHT22;6785;57.918;12.530;2022-08-19T13:23:29;24.90;99.90
13426;DHT22;6785;57.918;12.530;2022-08-19T13:25:57;24.80;99.90
13426;DHT22;6785;57.918;12.530;2022-08-19T13:28:24;24.80;99.90
13426;DHT22;6785;57.918;12.530;2022-08-19T13:30:51;25.00;99.90
13426;DHT22;6785;57.918;12.530;2022-08-19T13:33:37;24.80;99.90
13426;DHT22;6785;57.918;12.530;2022-08-19T13:36:12;25.00;99.90
13426;DHT22;6785;57.918;12.530;2022-08-19T13:38:38;25.10;99.90
13426;DHT22;6785;57.918;12.530;2022-08-19T13:41:05;25.20;99.90
13426;DHT22;6785;57.918;12.530;2022-08-19T13:43:33;25.30;99.90
13426;DHT22;6785;57.918;12.530;2022-08-19T13:46:00;25.20;99.90
13426;DHT22;6785;57.918;12.530;2022-08-19T13:48:34;25.30;99.90
13426;DHT22;6785;57.918;12.530;2022-08-19T13:51:05;25.10;99.90
13426;DHT22;6785;57.918;12.530;2022-08-19T13:53:32;25.10;99.90
13426;DHT22;6785;57.918;12.530;2022-08-19T13:55:58;25.00;99.90
13426;DHT22;6785;57.918;12.530;2022-08-19T13:58:25;25.10;99.90
13426;DHT22;6785;57.918;12.530;2022-08-19T14:00:52;25.20;99.90
13426;DHT22;6785;57.918;12.530;2022-08-19T14:03:19;25.30;99.90
13426;DHT22;6785;57.918;12.530;2022-08-19T14:05:46;25.30;99.90
13426;DHT22;6785;57.918;12.530;2022-08-19T14:08:15;25.40;99.90
13426;DHT22;6785;57.918;12.530;2022-08-19T14:10:42;25.40;99.90
13426;DHT22;6785;57.918;12.530;2022-08-19T14:13:29;25.40;99.90
13426;DHT22;6785;57.918;12.530;2022-08-19T14:15:56;25.40;99.90
13426;DHT22;6785;57.918;12.530;2022-08-19T14:18:23;25.50;99.90
13426;DHT22;6785;57.918;12.530;2022-08-19T14:20:50;25.40;99.90
13426;DHT22;6785;57.918;12.530;2022-08-19T14:23:18;25.30;99.90
13426;DHT22;6785;57.918;12.530;2022-08-19T14:25:45;25.40;99.90
13426;DHT22;6785;57.918;12.530;2022-08-19T14:28:13;25.50;99.90
13426;DHT22;6785;57.918;12.530;2022-08-19T14:30:40;25.10;99.90
13426;DHT22;6785;57.918;12.530;2022-08-19T14:33:07;25.10;99.90
13426;DHT22;6785;57.918;12.530;2022-08-19T14:35:35;24.90;99.90
13426;DHT22;6785;57.918;12.530;2022-08-19T14:38:02;24.80;99.90
13426;DHT22;6785;57.918;12.530;2022-08-19T14:40:32;25.00;99.90
13426;DHT22;6785;57.918;12.530;2022-08-19T14:43:02;24.80;99.90
13426;DHT22;6785;57.918;12.530;2022-08-19T14:45:45;24.80;99.90
13426;DHT22;6785;57.918;12.530;2022-08-19T14:48:12;24.70;99.90
13426;DHT22;6785;57.918;12.530;2022-08-19T14:50:39;24.80;99.90
13426;DHT22;6785;57.918;12.530;2022-08-19T14:53:08;24.80;99.90
13426;DHT22;6785;57.918;12.530;2022-08-19T14:55:36;24.90;99.90
13426;DHT22;6785;57.918;12.530;2022-08-19T14:58:03;24.80;99.90
13426;DHT22;6785;57.918;12.530;2022-08-19T15:00:30;24.70;99.90
13426;DHT22;6785;57.918;12.530;2022-08-19T15:02:57;24.90;99.90
13426;DHT22;6785;57.918;12.530;2022-08-19T15:05:24;24.80;99.90
13426;DHT22;6785;57.918;12.530;2022-08-19T15:07:52;24.90;99.90
13426;DHT22;6785;57.918;12.530;2022-08-19T15:10:20;24.90;99.90
13426;DHT22;6785;57.918;12.530;2022-08-19T15:12:50;24.70;99.90
13426;DHT22;6785;57.918;12.530;2022-08-19T15:15:18;24.60;99.90
13426;DHT22;6785;57.918;12.530;2022-08-19T15:17:45;24.60;99.90
13426;DHT22;6785;57.918;12.530;2022-08-19T15:20:16;24.70;99.90
13426;DHT22;6785;57.918;12.530;2022-08-19T15:22:44;24.70;99.90
13426;DHT22;6785;57.918;12.530;2022-08-19T15:25:14;24.60;99.90
13426;DHT22;6785;57.918;12.530;2022-08-19T15:27:41;24.70;99.90
13426;DHT22;6785;57.918;12.530;2022-08-19T15:30:11;24.80;99.90
13426;DHT22;6785;57.918;12.530;2022-08-19T15:32:38;24.60;99.90
13426;DHT22;6785;57.918;12.530;2022-08-19T15:35:06;24.40;99.90
13426;DHT22;6785;57.918;12.530;2022-08-19T15:37:34;24.30;99.90
13426;DHT22;6785;57.918;12.530;2022-08-19T15:40:02;24.20;99.90
13426;DHT22;6785;57.918;12.530;2022-08-19T15:42:29;24.20;99.90